createdAt,value
2022-11-25T00:01:41.574Z,65.10
2022-11-25T00:04:10.304Z,65.10
2022-11-25T00:06:38.894Z,65.10
2022-11-25T00:09:11.061Z,65.10
2022-11-25T00:11:43.463Z,65.10
2022-11-25T00:14:16.478Z,65.00
2022-11-25T00:16:48.498Z,65.00
2022-11-25T00:19:17.482Z,64.90
2022-11-25T00:21:46.454Z,64.90
2022-11-25T00:24:17.600Z,65.00
2022-11-25T00:26:47.583Z,64.90
2022-11-25T00:29:16.394Z,64.90
2022-11-25T00:31:45.383Z,65.00
2022-11-25T00:34:15.748Z,65.00
2022-11-25T00:36:44.349Z,65.00
2022-11-25T00:39:15.964Z,64.90
2022-11-25T00:42:04.165Z,64.90
2022-11-25T00:44:37.504Z,64.90
2022-11-25T00:47:10.602Z,64.90
2022-11-25T00:49:40.412Z,64.90
2022-11-25T00:52:10.315Z,64.90
2022-11-25T00:54:38.927Z,64.90
2022-11-25T00:57:08.862Z,64.90
2022-11-25T00:59:37.469Z,64.90
2022-11-25T01:02:06.236Z,64.70
2022-11-25T01:04:35.480Z,64.80
2022-11-25T01:07:05.007Z,64.80
2022-11-25T01:09:33.831Z,64.80
2022-11-25T01:12:02.570Z,64.80
2022-11-25T01:14:34.838Z,64.90
2022-11-25T01:17:03.692Z,64.90
2022-11-25T01:19:38.411Z,64.90
2022-11-25T01:22:07.183Z,65.00
2022-11-25T01:24:36.836Z,64.90
2022-11-25T01:27:05.608Z,65.00
2022-11-25T01:29:35.547Z,65.10
2022-11-25T01:32:04.212Z,65.00
2022-11-25T01:34:34.702Z,65.00
2022-11-25T01:37:04.012Z,65.00
2022-11-25T01:39:33.472Z,65.00
2022-11-25T01:42:03.164Z,64.90
2022-11-25T01:44:34.917Z,65.00
2022-11-25T01:47:10.812Z,65.00
2022-11-25T01:49:43.518Z,65.00
2022-11-25T01:52:18.242Z,65.10
2022-11-25T01:54:55.689Z,65.10
2022-11-25T01:57:29.673Z,65.10
2022-11-25T02:00:04.014Z,65.10
2022-11-25T02:02:33.442Z,65.00
2022-11-25T02:05:05.623Z,65.00
2022-11-25T02:07:38.554Z,64.90
2022-11-25T02:10:13.924Z,65.00
2022-11-25T02:12:47.288Z,65.00
2022-11-25T02:15:18.384Z,65.00
2022-11-25T02:17:47.445Z,65.00
2022-11-25T02:20:18.618Z,65.10
2022-11-25T02:22:58.986Z,65.00
2022-11-25T02:25:32.919Z,65.00
2022-11-25T02:28:06.324Z,65.00
2022-11-25T02:30:35.446Z,65.00
2022-11-25T02:33:05.330Z,65.00
2022-11-25T02:35:37.426Z,65.00
2022-11-25T02:38:10.846Z,64.90
2022-11-25T02:40:50.499Z,64.90
2022-11-25T02:43:19.367Z,64.90
2022-11-25T02:45:58.303Z,64.90
2022-11-25T02:49:00.763Z,64.90
2022-11-25T02:51:24.518Z,64.90
2022-11-25T02:53:53.804Z,64.80
2022-11-25T02:56:28.059Z,64.80
2022-11-25T02:58:56.859Z,64.80
2022-11-25T03:01:28.357Z,64.80
2022-11-25T03:03:57.114Z,64.90
2022-11-25T03:06:25.785Z,64.70
2022-11-25T03:08:54.709Z,64.80
2022-11-25T03:11:45.419Z,64.80
2022-11-25T03:14:14.976Z,64.80
2022-11-25T03:16:44.872Z,64.90
2022-11-25T03:19:13.632Z,64.90
2022-11-25T03:21:42.355Z,64.90
2022-11-25T03:24:11.031Z,64.80
2022-11-25T03:26:40.976Z,64.80
2022-11-25T03:29:09.991Z,64.80
2022-11-25T03:31:40.685Z,64.80
2022-11-25T03:34:12.502Z,64.80
2022-11-25T03:36:41.394Z,64.80
2022-11-25T03:39:11.202Z,64.80
2022-11-25T03:41:41.443Z,64.80
2022-11-25T03:44:10.538Z,64.80
2022-11-25T03:46:40.252Z,64.90
2022-11-25T03:49:09.602Z,64.80
2022-11-25T03:51:38.481Z,64.90
2022-11-25T03:54:07.194Z,64.90
2022-11-25T03:56:57.136Z,64.90
2022-11-25T03:59:25.981Z,64.80
2022-11-25T04:01:54.720Z,64.80
2022-11-25T04:04:24.193Z,64.80
2022-11-25T04:06:52.762Z,64.80
2022-11-25T04:09:21.587Z,64.80
2022-11-25T04:12:08.150Z,64.80
2022-11-25T04:14:48.804Z,64.90
2022-11-25T04:17:17.444Z,64.90
2022-11-25T04:19:46.774Z,64.90
2022-11-25T04:22:15.401Z,64.80
2022-11-25T04:24:46.658Z,64.80
2022-11-25T04:27:20.445Z,64.70
2022-11-25T04:29:51.136Z,64.70
2022-11-25T04:32:20.620Z,64.80
2022-11-25T04:34:49.238Z,64.90
2022-11-25T04:37:18.002Z,64.90
2022-11-25T04:39:46.588Z,64.90
2022-11-25T04:42:36.478Z,64.80
2022-11-25T04:45:22.841Z,64.90
2022-11-25T04:47:53.885Z,64.90
2022-11-25T04:50:25.310Z,64.90
2022-11-25T04:53:00.913Z,65.00
2022-11-25T04:55:29.853Z,64.90
2022-11-25T04:57:59.279Z,64.90
2022-11-25T05:00:29.141Z,65.00
2022-11-25T05:02:59.159Z,65.00
2022-11-25T05:05:27.873Z,65.00
2022-11-25T05:07:57.562Z,65.00
2022-11-25T05:10:26.202Z,65.10
2022-11-25T05:12:54.879Z,65.10
2022-11-25T05:15:24.222Z,65.00
2022-11-25T05:17:56.083Z,65.10
2022-11-25T05:20:40.376Z,65.00
2022-11-25T05:23:09.501Z,65.00
2022-11-25T05:25:38.836Z,65.10
2022-11-25T05:28:43.239Z,65.60
2022-11-25T05:31:31.217Z,65.10
2022-11-25T05:34:02.931Z,65.30
2022-11-25T05:36:33.082Z,65.20
2022-11-25T05:39:02.198Z,65.20
2022-11-25T05:41:53.514Z,65.20
2022-11-25T05:44:23.282Z,65.20
2022-11-25T05:46:55.810Z,65.20
2022-11-25T05:49:25.476Z,65.20
2022-11-25T05:51:54.124Z,65.10
2022-11-25T05:54:25.603Z,65.10
2022-11-25T05:56:54.534Z,65.10
2022-11-25T05:59:29.199Z,65.00
2022-11-25T06:02:13.221Z,65.00
2022-11-25T06:04:42.495Z,65.00
2022-11-25T06:07:11.083Z,65.00
2022-11-25T06:09:41.073Z,65.10
2022-11-25T06:12:09.820Z,65.00
2022-11-25T06:14:45.037Z,65.00
2022-11-25T06:17:15.204Z,65.10
2022-11-25T06:19:50.206Z,65.10
2022-11-25T06:22:18.751Z,65.40
2022-11-25T06:24:54.402Z,65.20
2022-11-25T06:27:31.940Z,65.20
2022-11-25T06:30:14.229Z,65.20
2022-11-25T06:32:49.651Z,65.20
2022-11-25T06:35:23.479Z,65.20
2022-11-25T06:37:56.435Z,65.30
2022-11-25T06:40:24.984Z,65.40
2022-11-25T06:42:53.500Z,65.20
2022-11-25T06:45:22.200Z,65.30
2022-11-25T06:47:52.096Z,65.40
2022-11-25T06:50:20.612Z,65.40
2022-11-25T06:52:49.224Z,65.30
2022-11-25T06:55:17.948Z,65.30
2022-11-25T06:57:46.457Z,66.10
2022-11-25T07:00:16.609Z,65.30
2022-11-25T07:02:48.600Z,65.40
2022-11-25T07:05:18.915Z,65.30
2022-11-25T07:07:48.271Z,65.50
2022-11-25T07:10:17.058Z,65.60
2022-11-25T07:12:46.074Z,65.60
2022-11-25T07:15:14.711Z,65.60
2022-11-25T07:17:43.227Z,65.60
2022-11-25T07:20:12.958Z,65.40
2022-11-25T07:22:42.850Z,65.40
2022-11-25T07:25:11.648Z,65.40
2022-11-25T07:27:40.274Z,65.50
2022-11-25T07:31:09.468Z,65.40
2022-11-25T07:32:59.421Z,65.40
2022-11-25T07:35:27.998Z,65.50
2022-11-25T07:37:58.163Z,65.40
2022-11-25T07:40:26.800Z,65.40
2022-11-25T07:42:55.698Z,65.50
2022-11-25T07:45:24.523Z,65.40
2022-11-25T07:48:01.926Z,65.50
2022-11-25T07:50:30.608Z,65.50
2022-11-25T07:53:00.747Z,65.70
2022-11-25T07:55:29.340Z,65.60
2022-11-25T07:58:00.601Z,65.70
2022-11-25T08:00:29.223Z,65.70
2022-11-25T08:02:57.808Z,65.70
2022-11-25T08:05:26.367Z,65.80
2022-11-25T08:08:16.651Z,65.70
2022-11-25T08:10:45.213Z,65.80
2022-11-25T08:13:13.797Z,65.80
2022-11-25T08:15:42.538Z,65.80
2022-11-25T08:18:11.098Z,65.80
2022-11-25T08:20:39.717Z,65.80
2022-11-25T08:23:08.370Z,65.90
2022-11-25T08:25:44.965Z,65.90
2022-11-25T08:28:16.065Z,66.00
2022-11-25T08:30:44.628Z,66.00
2022-11-25T08:33:13.135Z,66.20
2022-11-25T08:35:41.736Z,66.00
2022-11-25T08:38:12.929Z,66.00
2022-11-25T08:40:46.789Z,66.10
2022-11-25T08:43:15.471Z,66.10
2022-11-25T08:45:44.094Z,66.10
2022-11-25T08:48:12.674Z,66.20
2022-11-25T08:50:49.053Z,66.20
2022-11-25T08:53:18.655Z,66.30
2022-11-25T08:55:49.453Z,66.30
2022-11-25T08:58:17.996Z,66.30
2022-11-25T09:00:47.050Z,66.40
2022-11-25T09:03:15.659Z,66.40
2022-11-25T09:05:45.561Z,66.40
2022-11-25T09:08:14.807Z,66.50
2022-11-25T09:10:43.630Z,66.60
2022-11-25T09:13:13.598Z,66.70
2022-11-25T09:15:42.195Z,66.70
2022-11-25T09:18:12.272Z,67.00
2022-11-25T09:20:42.518Z,66.90
2022-11-25T09:23:11.287Z,67.00
2022-11-25T09:25:40.002Z,67.00
2022-11-25T09:28:08.547Z,67.00
2022-11-25T09:30:39.655Z,67.10
2022-11-25T09:33:08.195Z,67.10
2022-11-25T09:35:38.187Z,67.10
2022-11-25T09:38:06.732Z,67.20
2022-11-25T09:40:44.638Z,67.10
2022-11-25T09:43:47.604Z,67.40
2022-11-25T09:46:43.552Z,67.40
2022-11-25T09:49:30.793Z,67.40
2022-11-25T09:52:13.575Z,67.40
2022-11-25T09:54:46.394Z,67.40
2022-11-25T09:57:24.443Z,67.40
2022-11-25T10:00:07.008Z,67.50
2022-11-25T10:02:56.877Z,67.60
2022-11-25T10:05:30.889Z,67.60
2022-11-25T10:08:08.633Z,67.60
2022-11-25T10:10:45.204Z,67.60
2022-11-25T10:13:23.139Z,67.70
2022-11-25T10:15:53.080Z,67.70
2022-11-25T10:18:28.784Z,67.70
2022-11-25T10:20:57.409Z,67.80
2022-11-25T10:23:29.291Z,67.80
2022-11-25T10:26:02.817Z,67.80
2022-11-25T10:28:35.132Z,67.80
2022-11-25T10:31:08.454Z,67.80
2022-11-25T10:33:45.425Z,67.80
2022-11-25T10:36:19.962Z,67.80
2022-11-25T10:38:58.231Z,67.70
2022-11-25T10:41:32.082Z,67.70
2022-11-25T10:44:00.658Z,67.60
2022-11-25T10:47:11.681Z,67.50
2022-11-25T10:49:37.611Z,67.40
2022-11-25T10:52:13.853Z,67.30
2022-11-25T10:54:42.936Z,67.20
2022-11-25T10:57:21.342Z,67.10
2022-11-25T10:59:58.849Z,67.10
2022-11-25T11:02:29.971Z,67.30
2022-11-25T11:05:18.351Z,67.40
2022-11-25T11:07:48.600Z,67.70
2022-11-25T11:10:22.285Z,67.80
2022-11-25T11:13:00.729Z,68.00
2022-11-25T11:15:31.829Z,68.40
2022-11-25T11:18:15.092Z,68.70
2022-11-25T11:20:50.450Z,69.00
2022-11-25T11:23:20.321Z,69.30
2022-11-25T11:25:59.592Z,69.40
2022-11-25T11:28:38.776Z,69.60
2022-11-25T11:31:18.809Z,69.50
2022-11-25T11:33:59.422Z,69.50
2022-11-25T11:36:46.628Z,69.60
2022-11-25T11:40:00.251Z,69.60
2022-11-25T11:42:41.758Z,69.70
2022-11-25T11:45:30.083Z,69.50
2022-11-25T11:48:14.164Z,69.40
2022-11-25T11:50:48.284Z,69.00
2022-11-25T11:53:26.708Z,68.70
2022-11-25T11:59:17.289Z,68.20
2022-11-25T12:02:03.054Z,68.00
2022-11-25T12:04:41.227Z,67.70
2022-11-25T12:07:21.593Z,67.60
2022-11-25T12:09:58.315Z,67.50
2022-11-25T12:12:35.187Z,67.30
2022-11-25T12:15:14.137Z,67.10
2022-11-25T12:17:48.180Z,67.00
2022-11-25T12:20:26.794Z,66.70
2022-11-25T12:23:03.812Z,66.60
2022-11-25T12:25:38.978Z,66.40
2022-11-25T12:28:12.322Z,66.20
2022-11-25T12:30:57.492Z,66.10
2022-11-25T12:33:43.690Z,66.00
2022-11-25T12:36:18.243Z,65.90
2022-11-25T12:38:53.354Z,65.80
2022-11-25T12:41:30.913Z,65.70
2022-11-25T12:44:05.570Z,65.40
2022-11-25T12:46:41.213Z,65.50
2022-11-25T12:49:20.087Z,65.30
2022-11-25T12:52:26.421Z,65.20
2022-11-25T12:55:12.394Z,65.10
2022-11-25T12:58:23.925Z,65.00
2022-11-25T13:01:44.316Z,64.90
2022-11-25T13:04:58.039Z,64.80
2022-11-25T13:07:42.631Z,64.70
2022-11-25T13:10:29.668Z,64.70
2022-11-25T13:13:28.857Z,64.60
2022-11-25T13:16:00.742Z,64.50
2022-11-25T13:18:34.070Z,64.60
2022-11-25T13:21:09.296Z,64.40
2022-11-25T13:23:53.358Z,64.40
2022-11-25T13:26:55.047Z,64.20
2022-11-25T13:30:04.127Z,64.10
2022-11-25T13:32:43.372Z,64.20
2022-11-25T13:35:48.313Z,64.10
2022-11-25T13:39:00.969Z,64.10
2022-11-25T13:41:46.974Z,64.00
2022-11-25T13:44:28.155Z,64.10
2022-11-25T13:46:59.662Z,64.20
2022-11-25T13:49:37.405Z,64.20
2022-11-25T13:52:31.926Z,64.20
2022-11-25T13:55:06.547Z,64.40
2022-11-25T13:57:36.223Z,64.50
2022-11-25T14:00:10.286Z,64.50
2022-11-25T14:02:49.438Z,64.40
2022-11-25T14:06:05.112Z,64.40
2022-11-25T14:08:43.282Z,64.30
2022-11-25T14:11:52.716Z,64.30
2022-11-25T14:14:54.139Z,64.20
2022-11-25T14:17:53.505Z,64.10
2022-11-25T14:20:41.308Z,64.10
2022-11-25T14:23:42.435Z,64.00
2022-11-25T14:26:34.132Z,64.70
2022-11-25T14:29:06.330Z,63.90
2022-11-25T14:31:41.738Z,63.90
2022-11-25T14:34:19.222Z,63.90
2022-11-25T14:36:52.231Z,63.70
2022-11-25T14:39:27.652Z,63.70
2022-11-25T14:42:04.272Z,63.60
2022-11-25T14:44:39.448Z,63.60
2022-11-25T14:47:08.125Z,63.50
2022-11-25T14:50:05.263Z,63.40
2022-11-25T14:52:38.686Z,63.30
2022-11-25T14:55:08.864Z,63.40
2022-11-25T14:57:41.729Z,63.30
2022-11-25T15:00:15.478Z,63.40
2022-11-25T15:02:56.410Z,63.30
2022-11-25T15:05:33.155Z,63.30
2022-11-25T15:08:04.476Z,63.20
2022-11-25T15:10:37.899Z,63.20
2022-11-25T15:13:15.384Z,63.20
2022-11-25T15:15:47.207Z,63.20
2022-11-25T15:18:22.195Z,63.20
2022-11-25T15:20:58.740Z,63.10
2022-11-25T15:23:32.047Z,63.10
2022-11-25T15:26:01.251Z,63.10
2022-11-25T15:28:36.798Z,63.20
2022-11-25T15:31:13.351Z,63.20
2022-11-25T15:33:42.961Z,63.20
2022-11-25T15:36:13.059Z,63.20
2022-11-25T15:38:44.695Z,63.20
2022-11-25T15:41:23.073Z,63.30
2022-11-25T15:43:55.902Z,63.30
2022-11-25T15:46:26.546Z,63.30
2022-11-25T15:48:59.063Z,63.30
2022-11-25T15:51:36.798Z,63.30
2022-11-25T15:54:14.407Z,63.40
2022-11-25T15:56:49.065Z,63.40
2022-11-25T15:59:47.747Z,63.40
2022-11-25T16:02:37.259Z,63.40
2022-11-25T16:05:37.162Z,63.40
2022-11-25T16:08:38.302Z,63.40
2022-11-25T16:11:18.470Z,63.40
2022-11-25T16:13:48.615Z,63.50
2022-11-25T16:16:26.718Z,63.50
2022-11-25T16:19:15.265Z,63.50
2022-11-25T16:21:52.272Z,63.50
2022-11-25T16:24:38.380Z,63.40
2022-11-25T16:27:17.299Z,63.40
2022-11-25T16:29:56.315Z,63.40
2022-11-25T16:32:28.697Z,63.50
2022-11-25T16:35:15.392Z,63.40
2022-11-25T16:37:48.806Z,63.50
2022-11-25T16:40:20.223Z,63.50
2022-11-25T16:42:51.792Z,64.30
2022-11-25T16:45:23.278Z,63.70
2022-11-25T16:47:52.139Z,63.80
2022-11-25T16:50:22.393Z,63.70
2022-11-25T16:52:51.168Z,63.80
2022-11-25T16:55:21.150Z,63.80
2022-11-25T16:57:50.633Z,63.90
2022-11-25T17:00:19.831Z,64.00
2022-11-25T17:02:48.422Z,64.10
2022-11-25T17:05:20.219Z,64.10
2022-11-25T17:07:50.386Z,64.10
2022-11-25T17:10:22.018Z,64.90
2022-11-25T17:12:51.167Z,64.10
2022-11-25T17:15:25.205Z,64.10
2022-11-25T17:17:54.070Z,64.20
2022-11-25T17:20:25.694Z,64.10
2022-11-25T17:22:55.401Z,64.20
2022-11-25T17:25:33.690Z,64.20
2022-11-25T17:28:04.011Z,64.20
2022-11-25T17:30:32.720Z,64.30
2022-11-25T17:33:07.928Z,64.30
2022-11-25T17:35:36.701Z,64.40
2022-11-25T17:38:14.609Z,64.40
2022-11-25T17:40:45.704Z,64.50
2022-11-25T17:43:17.119Z,64.50
2022-11-25T17:45:47.569Z,64.50
2022-11-25T17:48:18.932Z,64.50
2022-11-25T17:50:48.086Z,64.50
2022-11-25T17:53:16.888Z,64.40
2022-11-25T17:55:47.043Z,64.50
2022-11-25T17:58:19.300Z,64.50
2022-11-25T18:00:49.008Z,64.60
2022-11-25T18:03:18.726Z,64.60
2022-11-25T18:05:47.427Z,64.60
2022-11-25T18:08:16.073Z,64.60
2022-11-25T18:10:48.710Z,64.50
2022-11-25T18:13:18.003Z,64.60
2022-11-25T18:15:47.237Z,64.60
2022-11-25T18:18:21.883Z,64.60
2022-11-25T18:20:50.678Z,64.70
2022-11-25T18:23:19.722Z,64.60
2022-11-25T18:25:50.153Z,64.70
2022-11-25T18:28:23.064Z,64.70
2022-11-25T18:30:54.470Z,64.80
2022-11-25T18:33:23.349Z,64.70
2022-11-25T18:35:52.112Z,64.70
2022-11-25T18:38:20.896Z,64.80
2022-11-25T18:40:53.826Z,64.80
2022-11-25T18:43:26.228Z,64.80
2022-11-25T18:45:55.855Z,64.90
2022-11-25T18:48:27.100Z,64.90
2022-11-25T18:50:57.582Z,64.90
2022-11-25T18:53:26.412Z,64.90
2022-11-25T18:55:56.608Z,64.90
2022-11-25T18:58:28.236Z,65.00
2022-11-25T19:01:03.709Z,65.00
2022-11-25T19:03:33.348Z,64.90
2022-11-25T19:06:03.371Z,64.90
2022-11-25T19:08:32.198Z,64.90
2022-11-25T19:11:02.425Z,64.90
2022-11-25T19:13:35.239Z,64.90
2022-11-25T19:16:11.906Z,65.00
2022-11-25T19:18:41.139Z,65.00
2022-11-25T19:21:15.894Z,65.00
2022-11-25T19:24:13.330Z,65.00
2022-11-25T19:26:47.014Z,65.10
2022-11-25T19:29:21.370Z,65.00
2022-11-25T19:31:51.235Z,65.10
2022-11-25T19:34:28.658Z,65.00
2022-11-25T19:36:57.289Z,65.10
2022-11-25T19:39:25.888Z,65.10
2022-11-25T19:41:55.889Z,65.00
2022-11-25T19:44:24.514Z,65.10
2022-11-25T19:47:14.286Z,65.20
2022-11-25T19:49:42.308Z,65.20
2022-11-25T19:52:18.672Z,65.20
2022-11-25T19:54:47.372Z,65.40
2022-11-25T19:57:19.722Z,65.30
2022-11-25T19:59:48.810Z,65.40
2022-11-25T20:02:22.516Z,65.40
2022-11-25T20:04:55.711Z,65.40
2022-11-25T20:07:24.737Z,65.30
2022-11-25T20:09:53.629Z,65.30
2022-11-25T20:12:26.494Z,65.40
2022-11-25T20:14:55.347Z,65.60
2022-11-25T20:17:28.398Z,65.80
2022-11-25T20:20:00.516Z,66.00
2022-11-25T20:22:34.408Z,66.10
2022-11-25T20:25:05.777Z,66.20
2022-11-25T20:27:35.865Z,66.20
2022-11-25T20:30:07.868Z,66.20
2022-11-25T20:32:36.458Z,66.30
2022-11-25T20:35:05.320Z,66.30
2022-11-25T20:37:50.510Z,66.40
2022-11-25T20:40:23.317Z,66.40
2022-11-25T20:42:55.040Z,66.50
2022-11-25T20:45:24.448Z,66.50
2022-11-25T20:47:53.080Z,66.50
2022-11-25T20:50:23.072Z,66.50
2022-11-25T20:52:52.027Z,66.70
2022-11-25T20:55:23.849Z,66.70
2022-11-25T20:57:54.347Z,66.70
2022-11-25T21:00:26.578Z,66.70
2022-11-25T21:02:57.407Z,66.70
2022-11-25T21:05:27.836Z,66.70
2022-11-25T21:07:56.690Z,66.70
2022-11-25T21:10:28.506Z,66.60
2022-11-25T21:12:58.620Z,66.70
2022-11-25T21:15:29.327Z,66.60
2022-11-25T21:17:59.680Z,66.60
2022-11-25T21:20:28.306Z,66.60
2022-11-25T21:23:05.526Z,66.60
2022-11-25T21:25:35.793Z,66.60
2022-11-25T21:28:06.256Z,66.50
2022-11-25T21:30:34.874Z,66.50
2022-11-25T21:33:03.412Z,66.40
2022-11-25T21:35:34.646Z,66.50
2022-11-25T21:38:06.965Z,66.50
2022-11-25T21:40:40.894Z,66.40
2022-11-25T21:43:21.512Z,66.40
2022-11-25T21:45:53.924Z,66.40
2022-11-25T21:48:25.215Z,66.20
2022-11-25T21:50:54.115Z,66.10
2022-11-25T21:53:23.022Z,66.20
2022-11-25T21:55:52.126Z,66.20
2022-11-25T21:58:27.200Z,66.20
2022-11-25T22:00:58.418Z,67.00
2022-11-25T22:03:31.840Z,66.30
2022-11-25T22:06:00.682Z,66.30
2022-11-25T22:08:29.286Z,66.30
2022-11-25T22:10:58.070Z,66.30
2022-11-25T22:13:35.235Z,66.40
2022-11-25T22:16:04.540Z,66.40
2022-11-25T22:18:36.438Z,66.30
2022-11-25T22:21:05.750Z,66.20
2022-11-25T22:23:34.556Z,66.20
2022-11-25T22:26:05.629Z,66.20
2022-11-25T22:28:37.357Z,66.20
2022-11-25T22:31:09.216Z,66.20
2022-11-25T22:33:38.777Z,66.20
2022-11-25T22:36:07.958Z,66.20
2022-11-25T22:38:36.501Z,66.10
2022-11-25T22:41:06.037Z,66.00
2022-11-25T22:43:40.960Z,65.90
2022-11-25T22:46:11.576Z,65.90
2022-11-25T22:48:40.772Z,66.00
2022-11-25T22:51:18.136Z,66.00
2022-11-25T22:53:46.780Z,66.00
2022-11-25T22:56:19.007Z,65.90
2022-11-25T22:58:49.011Z,65.90
2022-11-25T23:01:18.568Z,65.90
2022-11-25T23:03:47.312Z,65.90
2022-11-25T23:06:15.895Z,65.90
2022-11-25T23:08:44.437Z,65.90
2022-11-25T23:11:17.742Z,66.00
2022-11-25T23:13:48.714Z,66.00
2022-11-25T23:16:18.790Z,66.00
2022-11-25T23:18:48.269Z,66.00
2022-11-25T23:21:21.007Z,66.10
2022-11-25T23:23:50.123Z,66.10
2022-11-25T23:26:19.222Z,66.10
2022-11-25T23:28:48.147Z,66.00
2022-11-25T23:31:19.528Z,66.00
2022-11-25T23:33:51.501Z,66.10
2022-11-25T23:36:26.911Z,66.10
2022-11-25T23:38:58.681Z,66.10
2022-11-25T23:41:30.111Z,66.00
2022-11-25T23:43:59.905Z,66.00
2022-11-25T23:46:36.224Z,65.90
2022-11-25T23:49:05.830Z,65.90
2022-11-25T23:51:34.460Z,65.90
2022-11-25T23:54:03.116Z,65.90
2022-11-25T23:56:31.792Z,65.90
2022-11-25T23:59:01.190Z,66.00
